sensor_id;sensor_type;location;lat;lon;timestamp;P1;durP1;ratioP1;P2;durP2;ratioP2
42742;SDS011;28397;44.552;-0.848;2023-03-21T00:00:57;8.02;;;2.85;;
42742;SDS011;28397;44.552;-0.848;2023-03-21T00:03:25;5.85;;;2.60;;
42742;SDS011;28397;44.552;-0.848;2023-03-21T00:05:51;8.38;;;2.80;;
42742;SDS011;28397;44.552;-0.848;2023-03-21T00:08:18;6.47;;;2.80;;
42742;SDS011;28397;44.552;-0.848;2023-03-21T00:10:45;7.43;;;2.97;;
42742;SDS011;28397;44.552;-0.848;2023-03-21T00:13:13;6.25;;;2.90;;
42742;SDS011;28397;44.552;-0.848;2023-03-21T00:15:40;6.00;;;2.63;;
42742;SDS011;28397;44.552;-0.848;2023-03-21T00:18:18;7.13;;;2.83;;
42742;SDS011;28397;44.552;-0.848;2023-03-21T00:20:54;7.80;;;2.75;;
42742;SDS011;28397;44.552;-0.848;2023-03-21T00:23:26;5.78;;;2.80;;
42742;SDS011;28397;44.552;-0.848;2023-03-21T00:25:53;5.63;;;3.00;;
42742;SDS011;28397;44.552;-0.848;2023-03-21T00:28:19;7.32;;;3.72;;
42742;SDS011;28397;44.552;-0.848;2023-03-21T00:30:45;10.15;;;5.15;;
42742;SDS011;28397;44.552;-0.848;2023-03-21T00:33:11;7.13;;;3.50;;
42742;SDS011;28397;44.552;-0.848;2023-03-21T00:35:38;6.18;;;2.92;;
42742;SDS011;28397;44.552;-0.848;2023-03-21T00:38:07;5.05;;;2.75;;
42742;SDS011;28397;44.552;-0.848;2023-03-21T00:40:34;4.97;;;3.00;;
42742;SDS011;28397;44.552;-0.848;2023-03-21T00:42:59;7.10;;;3.00;;
42742;SDS011;28397;44.552;-0.848;2023-03-21T00:45:25;8.02;;;3.25;;
42742;SDS011;28397;44.552;-0.848;2023-03-21T00:47:51;5.30;;;3.10;;
42742;SDS011;28397;44.552;-0.848;2023-03-21T00:50:17;5.50;;;3.00;;
42742;SDS011;28397;44.552;-0.848;2023-03-21T00:52:43;4.63;;;2.70;;
42742;SDS011;28397;44.552;-0.848;2023-03-21T00:55:11;6.35;;;3.20;;
42742;SDS011;28397;44.552;-0.848;2023-03-21T00:57:38;5.60;;;2.33;;
42742;SDS011;28397;44.552;-0.848;2023-03-21T01:00:05;9.40;;;3.05;;
42742;SDS011;28397;44.552;-0.848;2023-03-21T01:02:34;5.30;;;2.90;;
42742;SDS011;28397;44.552;-0.848;2023-03-21T01:05:02;6.68;;;3.17;;
42742;SDS011;28397;44.552;-0.848;2023-03-21T01:07:28;7.07;;;2.92;;
42742;SDS011;28397;44.552;-0.848;2023-03-21T01:09:54;7.85;;;3.22;;
42742;SDS011;28397;44.552;-0.848;2023-03-21T01:12:20;5.45;;;3.17;;
42742;SDS011;28397;44.552;-0.848;2023-03-21T01:14:46;7.68;;;3.30;;
42742;SDS011;28397;44.552;-0.848;2023-03-21T01:17:11;7.05;;;3.67;;
42742;SDS011;28397;44.552;-0.848;2023-03-21T01:19:37;8.45;;;3.88;;
42742;SDS011;28397;44.552;-0.848;2023-03-21T01:22:03;7.88;;;4.30;;
42742;SDS011;28397;44.552;-0.848;2023-03-21T01:24:29;6.88;;;3.80;;
42742;SDS011;28397;44.552;-0.848;2023-03-21T01:26:55;6.13;;;3.63;;
42742;SDS011;28397;44.552;-0.848;2023-03-21T01:29:20;8.25;;;3.55;;
42742;SDS011;28397;44.552;-0.848;2023-03-21T01:31:46;7.68;;;3.70;;
42742;SDS011;28397;44.552;-0.848;2023-03-21T01:34:12;7.80;;;3.50;;
42742;SDS011;28397;44.552;-0.848;2023-03-21T01:36:38;5.75;;;3.53;;
42742;SDS011;28397;44.552;-0.848;2023-03-21T01:39:04;9.40;;;4.05;;
42742;SDS011;28397;44.552;-0.848;2023-03-21T01:41:32;10.90;;;4.38;;
42742;SDS011;28397;44.552;-0.848;2023-03-21T01:44:02;8.43;;;3.60;;
42742;SDS011;28397;44.552;-0.848;2023-03-21T01:46:42;6.60;;;3.20;;
42742;SDS011;28397;44.552;-0.848;2023-03-21T01:49:26;5.97;;;3.85;;
42742;SDS011;28397;44.552;-0.848;2023-03-21T01:51:59;7.18;;;3.45;;
42742;SDS011;28397;44.552;-0.848;2023-03-21T01:54:34;8.25;;;3.38;;
42742;SDS011;28397;44.552;-0.848;2023-03-21T01:57:06;6.43;;;3.00;;
42742;SDS011;28397;44.552;-0.848;2023-03-21T01:59:54;4.40;;;2.90;;
42742;SDS011;28397;44.552;-0.848;2023-03-21T02:04:50;5.93;;;2.75;;
42742;SDS011;28397;44.552;-0.848;2023-03-21T02:07:27;6.75;;;2.97;;
42742;SDS011;28397;44.552;-0.848;2023-03-21T02:10:02;6.20;;;2.70;;
42742;SDS011;28397;44.552;-0.848;2023-03-21T02:12:31;5.65;;;3.20;;
42742;SDS011;28397;44.552;-0.848;2023-03-21T02:14:57;5.18;;;3.28;;
42742;SDS011;28397;44.552;-0.848;2023-03-21T02:17:27;6.60;;;2.88;;
42742;SDS011;28397;44.552;-0.848;2023-03-21T02:28:19;4.32;;;2.63;;
42742;SDS011;28397;44.552;-0.848;2023-03-21T02:39:33;8.82;;;2.60;;
42742;SDS011;28397;44.552;-0.848;2023-03-21T02:42:11;9.65;;;2.65;;
42742;SDS011;28397;44.552;-0.848;2023-03-21T02:47:20;4.18;;;2.33;;
42742;SDS011;28397;44.552;-0.848;2023-03-21T02:52:32;4.47;;;2.75;;
42742;SDS011;28397;44.552;-0.848;2023-03-21T02:55:00;5.25;;;2.33;;
42742;SDS011;28397;44.552;-0.848;2023-03-21T02:57:29;6.22;;;2.47;;
42742;SDS011;28397;44.552;-0.848;2023-03-21T02:59:56;5.47;;;2.63;;
42742;SDS011;28397;44.552;-0.848;2023-03-21T03:02:24;4.10;;;2.17;;
42742;SDS011;28397;44.552;-0.848;2023-03-21T03:04:52;5.03;;;2.35;;
42742;SDS011;28397;44.552;-0.848;2023-03-21T03:07:20;5.00;;;2.38;;
42742;SDS011;28397;44.552;-0.848;2023-03-21T03:10:16;6.28;;;2.72;;
42742;SDS011;28397;44.552;-0.848;2023-03-21T03:15:52;3.88;;;2.50;;
42742;SDS011;28397;44.552;-0.848;2023-03-21T03:18:28;7.20;;;2.80;;
42742;SDS011;28397;44.552;-0.848;2023-03-21T03:26:13;5.30;;;2.50;;
42742;SDS011;28397;44.552;-0.848;2023-03-21T03:28:47;4.70;;;2.78;;
42742;SDS011;28397;44.552;-0.848;2023-03-21T03:33:46;5.90;;;2.40;;
42742;SDS011;28397;44.552;-0.848;2023-03-21T03:36:18;5.85;;;2.95;;
42742;SDS011;28397;44.552;-0.848;2023-03-21T03:38:48;4.05;;;2.78;;
42742;SDS011;28397;44.552;-0.848;2023-03-21T03:41:18;6.97;;;2.58;;
42742;SDS011;28397;44.552;-0.848;2023-03-21T03:43:52;3.95;;;2.58;;
42742;SDS011;28397;44.552;-0.848;2023-03-21T03:46:31;4.95;;;2.45;;
42742;SDS011;28397;44.552;-0.848;2023-03-21T03:49:04;4.53;;;2.90;;
42742;SDS011;28397;44.552;-0.848;2023-03-21T03:51:36;6.18;;;3.00;;
42742;SDS011;28397;44.552;-0.848;2023-03-21T03:54:18;5.05;;;2.90;;
42742;SDS011;28397;44.552;-0.848;2023-03-21T03:56:48;4.40;;;2.70;;
42742;SDS011;28397;44.552;-0.848;2023-03-21T03:59:15;9.00;;;3.00;;
42742;SDS011;28397;44.552;-0.848;2023-03-21T04:01:43;5.45;;;2.90;;
42742;SDS011;28397;44.552;-0.848;2023-03-21T04:04:09;6.60;;;3.33;;
42742;SDS011;28397;44.552;-0.848;2023-03-21T04:06:35;4.53;;;2.67;;
42742;SDS011;28397;44.552;-0.848;2023-03-21T04:09:02;7.32;;;3.53;;
42742;SDS011;28397;44.552;-0.848;2023-03-21T04:11:29;8.38;;;2.88;;
42742;SDS011;28397;44.552;-0.848;2023-03-21T04:13:55;5.43;;;2.85;;
42742;SDS011;28397;44.552;-0.848;2023-03-21T04:16:21;5.63;;;2.80;;
42742;SDS011;28397;44.552;-0.848;2023-03-21T04:18:47;5.53;;;2.75;;
42742;SDS011;28397;44.552;-0.848;2023-03-21T04:21:13;4.70;;;2.60;;
42742;SDS011;28397;44.552;-0.848;2023-03-21T04:23:39;6.57;;;2.70;;
42742;SDS011;28397;44.552;-0.848;2023-03-21T04:26:06;4.60;;;2.70;;
42742;SDS011;28397;44.552;-0.848;2023-03-21T04:28:32;4.68;;;2.35;;
42742;SDS011;28397;44.552;-0.848;2023-03-21T04:31:00;7.22;;;2.75;;
42742;SDS011;28397;44.552;-0.848;2023-03-21T04:33:25;4.65;;;2.42;;
42742;SDS011;28397;44.552;-0.848;2023-03-21T04:35:51;4.78;;;2.53;;
42742;SDS011;28397;44.552;-0.848;2023-03-21T04:38:21;7.53;;;2.75;;
42742;SDS011;28397;44.552;-0.848;2023-03-21T04:40:47;4.72;;;2.70;;
42742;SDS011;28397;44.552;-0.848;2023-03-21T04:43:13;5.60;;;2.60;;
42742;SDS011;28397;44.552;-0.848;2023-03-21T04:45:39;5.68;;;3.33;;
42742;SDS011;28397;44.552;-0.848;2023-03-21T04:48:05;5.88;;;2.90;;
42742;SDS011;28397;44.552;-0.848;2023-03-21T04:50:30;5.72;;;2.90;;
42742;SDS011;28397;44.552;-0.848;2023-03-21T04:52:56;4.80;;;3.45;;
42742;SDS011;28397;44.552;-0.848;2023-03-21T04:55:22;4.63;;;3.10;;
42742;SDS011;28397;44.552;-0.848;2023-03-21T04:57:50;4.38;;;3.20;;
42742;SDS011;28397;44.552;-0.848;2023-03-21T05:00:16;5.88;;;3.40;;
42742;SDS011;28397;44.552;-0.848;2023-03-21T05:02:42;6.97;;;3.05;;
42742;SDS011;28397;44.552;-0.848;2023-03-21T05:05:08;8.52;;;3.30;;
42742;SDS011;28397;44.552;-0.848;2023-03-21T05:07:39;4.95;;;3.35;;
42742;SDS011;28397;44.552;-0.848;2023-03-21T05:10:06;6.00;;;3.15;;
42742;SDS011;28397;44.552;-0.848;2023-03-21T05:12:34;8.05;;;3.55;;
42742;SDS011;28397;44.552;-0.848;2023-03-21T05:14:59;8.00;;;3.42;;
42742;SDS011;28397;44.552;-0.848;2023-03-21T05:17:25;10.88;;;3.33;;
42742;SDS011;28397;44.552;-0.848;2023-03-21T05:19:52;7.88;;;3.25;;
42742;SDS011;28397;44.552;-0.848;2023-03-21T05:22:20;6.38;;;2.90;;
42742;SDS011;28397;44.552;-0.848;2023-03-21T05:24:48;6.72;;;3.10;;
42742;SDS011;28397;44.552;-0.848;2023-03-21T05:27:18;7.63;;;3.53;;
42742;SDS011;28397;44.552;-0.848;2023-03-21T05:30:00;9.55;;;3.65;;
42742;SDS011;28397;44.552;-0.848;2023-03-21T05:32:28;9.73;;;3.80;;
42742;SDS011;28397;44.552;-0.848;2023-03-21T05:34:54;5.00;;;3.20;;
42742;SDS011;28397;44.552;-0.848;2023-03-21T05:37:20;7.03;;;3.08;;
42742;SDS011;28397;44.552;-0.848;2023-03-21T05:39:46;9.80;;;3.47;;
42742;SDS011;28397;44.552;-0.848;2023-03-21T05:42:11;5.15;;;3.35;;
42742;SDS011;28397;44.552;-0.848;2023-03-21T05:44:37;4.88;;;3.63;;
42742;SDS011;28397;44.552;-0.848;2023-03-21T05:47:04;5.45;;;3.00;;
42742;SDS011;28397;44.552;-0.848;2023-03-21T05:49:31;9.38;;;6.35;;
42742;SDS011;28397;44.552;-0.848;2023-03-21T05:51:56;7.60;;;5.78;;
42742;SDS011;28397;44.552;-0.848;2023-03-21T05:54:22;8.45;;;4.60;;
42742;SDS011;28397;44.552;-0.848;2023-03-21T05:56:48;16.10;;;13.15;;
42742;SDS011;28397;44.552;-0.848;2023-03-21T05:59:14;20.67;;;16.00;;
42742;SDS011;28397;44.552;-0.848;2023-03-21T06:01:40;17.05;;;15.00;;
42742;SDS011;28397;44.552;-0.848;2023-03-21T06:04:06;15.68;;;11.82;;
42742;SDS011;28397;44.552;-0.848;2023-03-21T06:06:32;9.88;;;6.53;;
42742;SDS011;28397;44.552;-0.848;2023-03-21T06:08:58;12.18;;;6.80;;
42742;SDS011;28397;44.552;-0.848;2023-03-21T06:11:27;12.38;;;7.63;;
42742;SDS011;28397;44.552;-0.848;2023-03-21T06:13:55;14.77;;;10.10;;
42742;SDS011;28397;44.552;-0.848;2023-03-21T06:16:21;8.27;;;4.40;;
42742;SDS011;28397;44.552;-0.848;2023-03-21T06:18:46;5.90;;;3.33;;
42742;SDS011;28397;44.552;-0.848;2023-03-21T06:21:12;8.88;;;3.53;;
42742;SDS011;28397;44.552;-0.848;2023-03-21T06:23:38;11.80;;;6.05;;
42742;SDS011;28397;44.552;-0.848;2023-03-21T06:26:04;14.02;;;7.03;;
42742;SDS011;28397;44.552;-0.848;2023-03-21T06:28:30;21.25;;;13.73;;
42742;SDS011;28397;44.552;-0.848;2023-03-21T06:30:56;53.58;;;38.95;;
42742;SDS011;28397;44.552;-0.848;2023-03-21T06:33:22;80.63;;;54.72;;
42742;SDS011;28397;44.552;-0.848;2023-03-21T06:35:52;44.38;;;29.38;;
42742;SDS011;28397;44.552;-0.848;2023-03-21T06:38:18;15.00;;;10.23;;
42742;SDS011;28397;44.552;-0.848;2023-03-21T06:40:47;24.52;;;18.80;;
42742;SDS011;28397;44.552;-0.848;2023-03-21T06:43:13;25.52;;;21.80;;
42742;SDS011;28397;44.552;-0.848;2023-03-21T06:45:43;14.13;;;12.57;;
42742;SDS011;28397;44.552;-0.848;2023-03-21T06:48:08;18.65;;;16.35;;
42742;SDS011;28397;44.552;-0.848;2023-03-21T06:50:34;13.18;;;11.70;;
42742;SDS011;28397;44.552;-0.848;2023-03-21T06:53:00;9.15;;;6.72;;
42742;SDS011;28397;44.552;-0.848;2023-03-21T06:55:26;10.95;;;6.38;;
42742;SDS011;28397;44.552;-0.848;2023-03-21T06:57:53;9.55;;;4.90;;
42742;SDS011;28397;44.552;-0.848;2023-03-21T07:00:21;7.35;;;6.65;;
42742;SDS011;28397;44.552;-0.848;2023-03-21T07:02:48;7.57;;;5.28;;
42742;SDS011;28397;44.552;-0.848;2023-03-21T07:05:14;17.23;;;14.82;;
42742;SDS011;28397;44.552;-0.848;2023-03-21T07:07:40;19.02;;;13.93;;
42742;SDS011;28397;44.552;-0.848;2023-03-21T07:10:06;11.25;;;7.43;;
42742;SDS011;28397;44.552;-0.848;2023-03-21T07:12:33;9.32;;;5.50;;
42742;SDS011;28397;44.552;-0.848;2023-03-21T07:15:00;9.68;;;6.50;;
42742;SDS011;28397;44.552;-0.848;2023-03-21T07:17:28;11.15;;;7.30;;
42742;SDS011;28397;44.552;-0.848;2023-03-21T07:19:54;23.13;;;18.10;;
42742;SDS011;28397;44.552;-0.848;2023-03-21T07:22:20;14.68;;;8.48;;
42742;SDS011;28397;44.552;-0.848;2023-03-21T07:24:45;10.60;;;7.80;;
42742;SDS011;28397;44.552;-0.848;2023-03-21T07:27:15;10.35;;;6.80;;
42742;SDS011;28397;44.552;-0.848;2023-03-21T07:29:42;10.38;;;6.00;;
42742;SDS011;28397;44.552;-0.848;2023-03-21T07:32:08;9.98;;;4.38;;
42742;SDS011;28397;44.552;-0.848;2023-03-21T07:34:35;6.70;;;3.80;;
42742;SDS011;28397;44.552;-0.848;2023-03-21T07:37:02;6.38;;;3.90;;
42742;SDS011;28397;44.552;-0.848;2023-03-21T07:39:28;6.57;;;4.00;;
42742;SDS011;28397;44.552;-0.848;2023-03-21T07:41:54;10.98;;;4.30;;
42742;SDS011;28397;44.552;-0.848;2023-03-21T07:44:21;8.88;;;4.35;;
42742;SDS011;28397;44.552;-0.848;2023-03-21T07:46:47;6.45;;;3.60;;
42742;SDS011;28397;44.552;-0.848;2023-03-21T07:49:13;5.32;;;2.95;;
42742;SDS011;28397;44.552;-0.848;2023-03-21T07:51:38;6.63;;;2.75;;
42742;SDS011;28397;44.552;-0.848;2023-03-21T07:54:04;6.57;;;3.00;;
42742;SDS011;28397;44.552;-0.848;2023-03-21T07:56:30;7.88;;;3.40;;
42742;SDS011;28397;44.552;-0.848;2023-03-21T07:58:56;6.25;;;2.97;;
42742;SDS011;28397;44.552;-0.848;2023-03-21T08:01:23;10.07;;;3.20;;
42742;SDS011;28397;44.552;-0.848;2023-03-21T08:03:49;5.00;;;2.97;;
42742;SDS011;28397;44.552;-0.848;2023-03-21T08:06:18;7.28;;;3.08;;
42742;SDS011;28397;44.552;-0.848;2023-03-21T08:08:45;6.78;;;2.88;;
42742;SDS011;28397;44.552;-0.848;2023-03-21T08:11:11;6.47;;;3.00;;
42742;SDS011;28397;44.552;-0.848;2023-03-21T08:13:36;6.25;;;2.60;;
42742;SDS011;28397;44.552;-0.848;2023-03-21T08:16:03;5.13;;;2.45;;
42742;SDS011;28397;44.552;-0.848;2023-03-21T08:18:29;5.00;;;2.60;;
42742;SDS011;28397;44.552;-0.848;2023-03-21T08:20:55;5.88;;;2.90;;
42742;SDS011;28397;44.552;-0.848;2023-03-21T08:23:22;4.00;;;2.30;;
42742;SDS011;28397;44.552;-0.848;2023-03-21T08:25:55;4.85;;;2.30;;
42742;SDS011;28397;44.552;-0.848;2023-03-21T08:28:21;5.28;;;2.50;;
42742;SDS011;28397;44.552;-0.848;2023-03-21T08:30:47;4.95;;;2.45;;
42742;SDS011;28397;44.552;-0.848;2023-03-21T08:33:15;5.68;;;2.70;;
42742;SDS011;28397;44.552;-0.848;2023-03-21T08:35:42;8.15;;;2.42;;
42742;SDS011;28397;44.552;-0.848;2023-03-21T08:38:09;8.80;;;2.70;;
42742;SDS011;28397;44.552;-0.848;2023-03-21T08:40:35;7.10;;;2.88;;
42742;SDS011;28397;44.552;-0.848;2023-03-21T08:43:01;4.88;;;2.63;;
42742;SDS011;28397;44.552;-0.848;2023-03-21T08:45:27;3.70;;;2.33;;
42742;SDS011;28397;44.552;-0.848;2023-03-21T08:47:53;7.35;;;2.60;;
42742;SDS011;28397;44.552;-0.848;2023-03-21T08:50:20;4.85;;;2.60;;
42742;SDS011;28397;44.552;-0.848;2023-03-21T08:52:49;4.63;;;2.20;;
42742;SDS011;28397;44.552;-0.848;2023-03-21T08:55:16;6.13;;;2.45;;
42742;SDS011;28397;44.552;-0.848;2023-03-21T08:57:42;5.85;;;2.30;;
42742;SDS011;28397;44.552;-0.848;2023-03-21T09:00:09;3.60;;;2.08;;
42742;SDS011;28397;44.552;-0.848;2023-03-21T09:02:39;4.55;;;2.10;;
42742;SDS011;28397;44.552;-0.848;2023-03-21T09:05:06;4.25;;;2.00;;
42742;SDS011;28397;44.552;-0.848;2023-03-21T09:07:33;4.15;;;1.92;;
42742;SDS011;28397;44.552;-0.848;2023-03-21T09:10:00;7.10;;;1.98;;
42742;SDS011;28397;44.552;-0.848;2023-03-21T09:12:27;6.53;;;2.53;;
42742;SDS011;28397;44.552;-0.848;2023-03-21T09:14:53;5.97;;;2.30;;
42742;SDS011;28397;44.552;-0.848;2023-03-21T09:17:18;5.57;;;2.28;;
42742;SDS011;28397;44.552;-0.848;2023-03-21T09:19:44;5.93;;;2.53;;
42742;SDS011;28397;44.552;-0.848;2023-03-21T09:22:11;6.35;;;2.10;;
42742;SDS011;28397;44.552;-0.848;2023-03-21T09:24:44;10.10;;;2.58;;
42742;SDS011;28397;44.552;-0.848;2023-03-21T09:27:11;7.25;;;2.08;;
42742;SDS011;28397;44.552;-0.848;2023-03-21T09:29:38;5.90;;;2.00;;
42742;SDS011;28397;44.552;-0.848;2023-03-21T09:32:07;5.18;;;2.22;;
42742;SDS011;28397;44.552;-0.848;2023-03-21T09:34:33;4.18;;;2.00;;
42742;SDS011;28397;44.552;-0.848;2023-03-21T09:37:01;5.32;;;2.03;;
42742;SDS011;28397;44.552;-0.848;2023-03-21T09:39:27;7.05;;;1.80;;
42742;SDS011;28397;44.552;-0.848;2023-03-21T09:47:26;5.63;;;1.90;;
42742;SDS011;28397;44.552;-0.848;2023-03-21T09:50:05;4.05;;;1.77;;
42742;SDS011;28397;44.552;-0.848;2023-03-21T09:55:13;7.88;;;2.83;;
42742;SDS011;28397;44.552;-0.848;2023-03-21T09:57:43;4.68;;;1.98;;
42742;SDS011;28397;44.552;-0.848;2023-03-21T10:00:26;4.28;;;1.92;;
42742;SDS011;28397;44.552;-0.848;2023-03-21T10:02:59;6.82;;;2.25;;
42742;SDS011;28397;44.552;-0.848;2023-03-21T10:05:30;6.60;;;2.10;;
42742;SDS011;28397;44.552;-0.848;2023-03-21T10:08:05;6.38;;;1.90;;
42742;SDS011;28397;44.552;-0.848;2023-03-21T10:13:56;4.75;;;1.90;;
42742;SDS011;28397;44.552;-0.848;2023-03-21T10:16:42;6.07;;;1.88;;
42742;SDS011;28397;44.552;-0.848;2023-03-21T10:19:12;3.90;;;1.58;;
42742;SDS011;28397;44.552;-0.848;2023-03-21T10:21:40;6.07;;;1.55;;
42742;SDS011;28397;44.552;-0.848;2023-03-21T10:24:08;5.28;;;2.30;;
42742;SDS011;28397;44.552;-0.848;2023-03-21T10:26:44;4.65;;;1.95;;
42742;SDS011;28397;44.552;-0.848;2023-03-21T10:29:14;6.45;;;1.92;;
42742;SDS011;28397;44.552;-0.848;2023-03-21T10:31:42;3.45;;;1.75;;
42742;SDS011;28397;44.552;-0.848;2023-03-21T10:34:14;4.55;;;1.65;;
42742;SDS011;28397;44.552;-0.848;2023-03-21T10:36:43;5.50;;;1.92;;
42742;SDS011;28397;44.552;-0.848;2023-03-21T10:42:21;7.05;;;2.00;;
42742;SDS011;28397;44.552;-0.848;2023-03-21T10:44:55;4.53;;;1.70;;
42742;SDS011;28397;44.552;-0.848;2023-03-21T10:47:39;3.97;;;1.50;;
42742;SDS011;28397;44.552;-0.848;2023-03-21T10:50:07;4.57;;;1.48;;
42742;SDS011;28397;44.552;-0.848;2023-03-21T10:52:37;5.95;;;1.58;;
42742;SDS011;28397;44.552;-0.848;2023-03-21T10:55:24;2.97;;;1.75;;
42742;SDS011;28397;44.552;-0.848;2023-03-21T10:58:00;3.08;;;1.30;;
42742;SDS011;28397;44.552;-0.848;2023-03-21T11:00:39;3.83;;;1.55;;
42742;SDS011;28397;44.552;-0.848;2023-03-21T11:03:21;3.65;;;1.75;;
42742;SDS011;28397;44.552;-0.848;2023-03-21T11:06:22;3.60;;;1.50;;
42742;SDS011;28397;44.552;-0.848;2023-03-21T11:08:47;2.05;;;1.27;;
42742;SDS011;28397;44.552;-0.848;2023-03-21T11:11:35;3.03;;;1.50;;
42742;SDS011;28397;44.552;-0.848;2023-03-21T11:14:03;2.78;;;1.50;;
42742;SDS011;28397;44.552;-0.848;2023-03-21T11:16:36;5.65;;;1.73;;
42742;SDS011;28397;44.552;-0.848;2023-03-21T11:22:03;4.15;;;1.90;;
42742;SDS011;28397;44.552;-0.848;2023-03-21T11:24:30;4.40;;;1.95;;
42742;SDS011;28397;44.552;-0.848;2023-03-21T11:26:57;4.05;;;1.73;;
42742;SDS011;28397;44.552;-0.848;2023-03-21T11:31:52;4.07;;;1.75;;
42742;SDS011;28397;44.552;-0.848;2023-03-21T11:34:24;4.45;;;1.60;;
42742;SDS011;28397;44.552;-0.848;2023-03-21T11:37:24;3.28;;;1.60;;
42742;SDS011;28397;44.552;-0.848;2023-03-21T11:39:56;5.38;;;1.98;;
42742;SDS011;28397;44.552;-0.848;2023-03-21T11:42:43;5.75;;;2.03;;
42742;SDS011;28397;44.552;-0.848;2023-03-21T11:45:14;3.40;;;1.70;;
42742;SDS011;28397;44.552;-0.848;2023-03-21T11:47:42;5.32;;;1.80;;
42742;SDS011;28397;44.552;-0.848;2023-03-21T11:50:19;5.05;;;1.63;;
42742;SDS011;28397;44.552;-0.848;2023-03-21T11:52:48;3.45;;;1.80;;
42742;SDS011;28397;44.552;-0.848;2023-03-21T11:55:23;4.47;;;2.00;;
42742;SDS011;28397;44.552;-0.848;2023-03-21T12:00:53;2.95;;;1.63;;
42742;SDS011;28397;44.552;-0.848;2023-03-21T12:06:27;5.13;;;1.80;;
42742;SDS011;28397;44.552;-0.848;2023-03-21T12:09:01;4.60;;;1.85;;
42742;SDS011;28397;44.552;-0.848;2023-03-21T12:14:18;4.63;;;1.70;;
42742;SDS011;28397;44.552;-0.848;2023-03-21T12:25:26;5.00;;;1.85;;
42742;SDS011;28397;44.552;-0.848;2023-03-21T12:28:34;3.72;;;1.80;;
42742;SDS011;28397;44.552;-0.848;2023-03-21T12:36:46;5.65;;;1.73;;
42742;SDS011;28397;44.552;-0.848;2023-03-21T12:41:55;4.30;;;1.50;;
42742;SDS011;28397;44.552;-0.848;2023-03-21T12:44:54;3.67;;;1.70;;
42742;SDS011;28397;44.552;-0.848;2023-03-21T12:47:25;4.28;;;1.60;;
42742;SDS011;28397;44.552;-0.848;2023-03-21T12:49:56;3.78;;;1.60;;
42742;SDS011;28397;44.552;-0.848;2023-03-21T12:52:42;5.93;;;1.80;;
42742;SDS011;28397;44.552;-0.848;2023-03-21T12:55:18;5.03;;;1.75;;
42742;SDS011;28397;44.552;-0.848;2023-03-21T12:57:47;6.43;;;2.03;;
42742;SDS011;28397;44.552;-0.848;2023-03-21T13:03:10;3.22;;;1.48;;
42742;SDS011;28397;44.552;-0.848;2023-03-21T13:05:50;2.38;;;1.45;;
42742;SDS011;28397;44.552;-0.848;2023-03-21T13:08:25;2.80;;;2.00;;
42742;SDS011;28397;44.552;-0.848;2023-03-21T13:10:56;2.88;;;1.48;;
42742;SDS011;28397;44.552;-0.848;2023-03-21T13:16:32;2.65;;;1.48;;
42742;SDS011;28397;44.552;-0.848;2023-03-21T13:22:05;2.85;;;1.20;;
42742;SDS011;28397;44.552;-0.848;2023-03-21T13:24:56;2.90;;;1.45;;
42742;SDS011;28397;44.552;-0.848;2023-03-21T13:27:42;3.53;;;1.25;;
42742;SDS011;28397;44.552;-0.848;2023-03-21T13:32:43;3.00;;;1.40;;
42742;SDS011;28397;44.552;-0.848;2023-03-21T13:35:18;1.52;;;1.08;;
42742;SDS011;28397;44.552;-0.848;2023-03-21T13:38:20;3.60;;;1.50;;
42742;SDS011;28397;44.552;-0.848;2023-03-21T13:40:57;1.90;;;1.02;;
42742;SDS011;28397;44.552;-0.848;2023-03-21T13:48:43;3.45;;;1.20;;
42742;SDS011;28397;44.552;-0.848;2023-03-21T13:51:09;2.88;;;1.20;;
42742;SDS011;28397;44.552;-0.848;2023-03-21T13:53:38;5.72;;;1.50;;
42742;SDS011;28397;44.552;-0.848;2023-03-21T13:58:49;2.35;;;1.20;;
42742;SDS011;28397;44.552;-0.848;2023-03-21T14:04:05;2.88;;;1.25;;
42742;SDS011;28397;44.552;-0.848;2023-03-21T14:11:52;2.08;;;1.10;;
42742;SDS011;28397;44.552;-0.848;2023-03-21T14:14:20;2.70;;;1.52;;
42742;SDS011;28397;44.552;-0.848;2023-03-21T14:16:51;2.95;;;1.67;;
42742;SDS011;28397;44.552;-0.848;2023-03-21T14:19:17;3.35;;;1.40;;
42742;SDS011;28397;44.552;-0.848;2023-03-21T14:21:49;2.75;;;1.20;;
42742;SDS011;28397;44.552;-0.848;2023-03-21T14:24:18;1.80;;;1.00;;
42742;SDS011;28397;44.552;-0.848;2023-03-21T14:26:46;3.30;;;1.10;;
42742;SDS011;28397;44.552;-0.848;2023-03-21T14:29:17;1.95;;;1.10;;
42742;SDS011;28397;44.552;-0.848;2023-03-21T14:31:49;2.45;;;1.10;;
42742;SDS011;28397;44.552;-0.848;2023-03-21T14:34:15;1.73;;;1.00;;
42742;SDS011;28397;44.552;-0.848;2023-03-21T14:36:42;1.92;;;1.40;;
42742;SDS011;28397;44.552;-0.848;2023-03-21T14:39:16;2.20;;;1.50;;
42742;SDS011;28397;44.552;-0.848;2023-03-21T14:41:55;4.40;;;1.40;;
42742;SDS011;28397;44.552;-0.848;2023-03-21T14:44:26;2.70;;;1.40;;
42742;SDS011;28397;44.552;-0.848;2023-03-21T14:49:35;3.22;;;1.33;;
42742;SDS011;28397;44.552;-0.848;2023-03-21T14:54:50;3.05;;;1.30;;
42742;SDS011;28397;44.552;-0.848;2023-03-21T14:57:21;2.85;;;1.17;;
42742;SDS011;28397;44.552;-0.848;2023-03-21T14:59:54;2.47;;;1.38;;
42742;SDS011;28397;44.552;-0.848;2023-03-21T15:02:36;2.80;;;1.33;;
42742;SDS011;28397;44.552;-0.848;2023-03-21T15:05:08;2.10;;;1.00;;
42742;SDS011;28397;44.552;-0.848;2023-03-21T15:07:39;1.58;;;0.90;;
42742;SDS011;28397;44.552;-0.848;2023-03-21T15:10:13;3.30;;;1.23;;
42742;SDS011;28397;44.552;-0.848;2023-03-21T15:15:18;2.28;;;1.20;;
42742;SDS011;28397;44.552;-0.848;2023-03-21T15:17:45;1.42;;;0.98;;
42742;SDS011;28397;44.552;-0.848;2023-03-21T15:20:14;2.35;;;1.92;;
42742;SDS011;28397;44.552;-0.848;2023-03-21T15:22:48;2.78;;;1.40;;
42742;SDS011;28397;44.552;-0.848;2023-03-21T15:25:19;3.63;;;2.45;;
42742;SDS011;28397;44.552;-0.848;2023-03-21T15:27:50;4.60;;;2.20;;
42742;SDS011;28397;44.552;-0.848;2023-03-21T15:30:36;2.92;;;2.45;;
42742;SDS011;28397;44.552;-0.848;2023-03-21T15:33:05;2.72;;;1.70;;
42742;SDS011;28397;44.552;-0.848;2023-03-21T15:35:37;2.28;;;1.27;;
42742;SDS011;28397;44.552;-0.848;2023-03-21T15:38:05;1.55;;;1.20;;
42742;SDS011;28397;44.552;-0.848;2023-03-21T15:40:45;2.35;;;0.90;;
42742;SDS011;28397;44.552;-0.848;2023-03-21T15:43:17;2.28;;;1.52;;
42742;SDS011;28397;44.552;-0.848;2023-03-21T15:48:11;2.28;;;1.00;;
42742;SDS011;28397;44.552;-0.848;2023-03-21T15:50:39;3.60;;;1.13;;
42742;SDS011;28397;44.552;-0.848;2023-03-21T15:53:13;1.37;;;0.83;;
42742;SDS011;28397;44.552;-0.848;2023-03-21T15:55:43;2.45;;;0.80;;
42742;SDS011;28397;44.552;-0.848;2023-03-21T15:58:33;2.25;;;1.00;;
42742;SDS011;28397;44.552;-0.848;2023-03-21T16:01:05;2.23;;;1.20;;
42742;SDS011;28397;44.552;-0.848;2023-03-21T16:03:47;3.25;;;1.20;;
42742;SDS011;28397;44.552;-0.848;2023-03-21T16:06:19;1.58;;;0.90;;
42742;SDS011;28397;44.552;-0.848;2023-03-21T16:08:53;2.17;;;0.90;;
42742;SDS011;28397;44.552;-0.848;2023-03-21T16:14:19;1.48;;;0.90;;
42742;SDS011;28397;44.552;-0.848;2023-03-21T16:16:46;0.90;;;0.80;;
42742;SDS011;28397;44.552;-0.848;2023-03-21T16:19:12;1.85;;;0.85;;
42742;SDS011;28397;44.552;-0.848;2023-03-21T16:21:40;1.23;;;0.80;;
42742;SDS011;28397;44.552;-0.848;2023-03-21T16:24:07;1.55;;;0.90;;
42742;SDS011;28397;44.552;-0.848;2023-03-21T16:26:52;1.00;;;0.80;;
42742;SDS011;28397;44.552;-0.848;2023-03-21T16:29:19;1.60;;;0.77;;
42742;SDS011;28397;44.552;-0.848;2023-03-21T16:31:46;3.08;;;1.70;;
42742;SDS011;28397;44.552;-0.848;2023-03-21T16:34:12;1.70;;;0.90;;
42742;SDS011;28397;44.552;-0.848;2023-03-21T16:36:38;2.72;;;1.00;;
42742;SDS011;28397;44.552;-0.848;2023-03-21T16:39:15;0.85;;;0.70;;
42742;SDS011;28397;44.552;-0.848;2023-03-21T16:41:43;1.17;;;0.80;;
42742;SDS011;28397;44.552;-0.848;2023-03-21T16:44:09;1.92;;;0.82;;
42742;SDS011;28397;44.552;-0.848;2023-03-21T16:46:35;1.17;;;1.00;;
42742;SDS011;28397;44.552;-0.848;2023-03-21T16:49:00;2.25;;;0.90;;
42742;SDS011;28397;44.552;-0.848;2023-03-21T16:51:33;1.92;;;1.00;;